sensor_id;sensor_type;location;lat;lon;timestamp;P1;durP1;ratioP1;P2;durP2;ratioP2
80625;SDS011;69982;51.758;5.784;2023-09-19T00:00:22;8.30;;;1.30;;
80625;SDS011;69982;51.758;5.784;2023-09-19T00:03:10;8.60;;;1.50;;
80625;SDS011;69982;51.758;5.784;2023-09-19T00:05:39;6.40;;;1.20;;
80625;SDS011;69982;51.758;5.784;2023-09-19T00:08:07;7.40;;;1.60;;
80625;SDS011;69982;51.758;5.784;2023-09-19T00:10:35;11.80;;;1.80;;
80625;SDS011;69982;51.758;5.784;2023-09-19T00:13:03;8.70;;;1.90;;
80625;SDS011;69982;51.758;5.784;2023-09-19T00:15:36;12.30;;;1.90;;
80625;SDS011;69982;51.758;5.784;2023-09-19T00:18:08;8.20;;;2.20;;
80625;SDS011;69982;51.758;5.784;2023-09-19T00:20:37;15.50;;;2.10;;
80625;SDS011;69982;51.758;5.784;2023-09-19T00:23:05;11.90;;;2.00;;
80625;SDS011;69982;51.758;5.784;2023-09-19T00:25:34;11.20;;;2.00;;
80625;SDS011;69982;51.758;5.784;2023-09-19T00:28:03;9.40;;;1.60;;
80625;SDS011;69982;51.758;5.784;2023-09-19T00:30:31;10.00;;;1.80;;
80625;SDS011;69982;51.758;5.784;2023-09-19T00:33:00;10.90;;;1.60;;
80625;SDS011;69982;51.758;5.784;2023-09-19T00:35:29;9.50;;;1.80;;
80625;SDS011;69982;51.758;5.784;2023-09-19T00:37:58;12.70;;;1.70;;
80625;SDS011;69982;51.758;5.784;2023-09-19T00:40:25;12.90;;;2.10;;
80625;SDS011;69982;51.758;5.784;2023-09-19T00:42:53;19.30;;;1.60;;
80625;SDS011;69982;51.758;5.784;2023-09-19T00:45:27;9.10;;;1.30;;
80625;SDS011;69982;51.758;5.784;2023-09-19T00:47:56;9.10;;;1.30;;
80625;SDS011;69982;51.758;5.784;2023-09-19T00:50:25;14.70;;;1.80;;
80625;SDS011;69982;51.758;5.784;2023-09-19T00:52:54;13.80;;;1.90;;
80625;SDS011;69982;51.758;5.784;2023-09-19T00:55:25;9.90;;;1.50;;
80625;SDS011;69982;51.758;5.784;2023-09-19T00:57:53;10.30;;;1.70;;
80625;SDS011;69982;51.758;5.784;2023-09-19T01:00:23;11.60;;;1.70;;
80625;SDS011;69982;51.758;5.784;2023-09-19T01:02:51;8.80;;;2.10;;
80625;SDS011;69982;51.758;5.784;2023-09-19T01:05:19;11.50;;;1.80;;
80625;SDS011;69982;51.758;5.784;2023-09-19T01:07:47;10.00;;;1.70;;
80625;SDS011;69982;51.758;5.784;2023-09-19T01:10:17;9.20;;;1.60;;
80625;SDS011;69982;51.758;5.784;2023-09-19T01:18:21;11.20;;;1.80;;
80625;SDS011;69982;51.758;5.784;2023-09-19T01:21:05;11.00;;;1.20;;
80625;SDS011;69982;51.758;5.784;2023-09-19T01:24:07;8.40;;;1.30;;
80625;SDS011;69982;51.758;5.784;2023-09-19T01:26:56;12.80;;;1.50;;
80625;SDS011;69982;51.758;5.784;2023-09-19T01:29:42;11.50;;;1.80;;
80625;SDS011;69982;51.758;5.784;2023-09-19T01:32:16;8.40;;;1.40;;
80625;SDS011;69982;51.758;5.784;2023-09-19T01:34:49;9.00;;;1.30;;
80625;SDS011;69982;51.758;5.784;2023-09-19T01:37:21;10.70;;;1.40;;
80625;SDS011;69982;51.758;5.784;2023-09-19T01:39:54;9.60;;;1.40;;
80625;SDS011;69982;51.758;5.784;2023-09-19T01:47:46;8.40;;;1.80;;
80625;SDS011;69982;51.758;5.784;2023-09-19T01:50:26;13.80;;;1.40;;
80625;SDS011;69982;51.758;5.784;2023-09-19T01:53:02;11.80;;;1.60;;
80625;SDS011;69982;51.758;5.784;2023-09-19T01:55:41;7.60;;;1.00;;
80625;SDS011;69982;51.758;5.784;2023-09-19T02:01:11;9.60;;;1.40;;
80625;SDS011;69982;51.758;5.784;2023-09-19T02:03:42;8.90;;;1.40;;
80625;SDS011;69982;51.758;5.784;2023-09-19T02:06:15;13.10;;;1.90;;
80625;SDS011;69982;51.758;5.784;2023-09-19T02:08:45;6.50;;;1.00;;
80625;SDS011;69982;51.758;5.784;2023-09-19T02:11:13;7.80;;;1.90;;
80625;SDS011;69982;51.758;5.784;2023-09-19T02:13:41;12.80;;;1.60;;
80625;SDS011;69982;51.758;5.784;2023-09-19T02:16:09;12.40;;;1.90;;
80625;SDS011;69982;51.758;5.784;2023-09-19T02:18:39;8.60;;;1.20;;
80625;SDS011;69982;51.758;5.784;2023-09-19T02:21:06;10.10;;;2.10;;
80625;SDS011;69982;51.758;5.784;2023-09-19T02:23:34;10.90;;;1.30;;
80625;SDS011;69982;51.758;5.784;2023-09-19T02:26:02;10.50;;;1.60;;
80625;SDS011;69982;51.758;5.784;2023-09-19T02:28:32;5.90;;;1.30;;
80625;SDS011;69982;51.758;5.784;2023-09-19T02:30:59;9.40;;;1.20;;
80625;SDS011;69982;51.758;5.784;2023-09-19T02:33:28;12.10;;;1.40;;
80625;SDS011;69982;51.758;5.784;2023-09-19T02:35:59;6.30;;;1.10;;
80625;SDS011;69982;51.758;5.784;2023-09-19T02:38:31;6.80;;;1.10;;
80625;SDS011;69982;51.758;5.784;2023-09-19T02:40:58;5.90;;;1.10;;
80625;SDS011;69982;51.758;5.784;2023-09-19T02:43:26;9.90;;;1.60;;
80625;SDS011;69982;51.758;5.784;2023-09-19T02:45:54;10.00;;;1.40;;
80625;SDS011;69982;51.758;5.784;2023-09-19T02:48:22;7.50;;;1.10;;
80625;SDS011;69982;51.758;5.784;2023-09-19T02:50:50;9.80;;;1.30;;
80625;SDS011;69982;51.758;5.784;2023-09-19T02:55:46;7.90;;;1.20;;
80625;SDS011;69982;51.758;5.784;2023-09-19T02:58:14;7.60;;;1.20;;
80625;SDS011;69982;51.758;5.784;2023-09-19T03:00:42;15.70;;;1.70;;
80625;SDS011;69982;51.758;5.784;2023-09-19T03:03:15;10.90;;;1.10;;
80625;SDS011;69982;51.758;5.784;2023-09-19T03:05:44;8.40;;;1.70;;
80625;SDS011;69982;51.758;5.784;2023-09-19T03:08:15;7.40;;;1.00;;
80625;SDS011;69982;51.758;5.784;2023-09-19T03:10:44;10.30;;;1.30;;
80625;SDS011;69982;51.758;5.784;2023-09-19T03:13:14;8.20;;;1.40;;
80625;SDS011;69982;51.758;5.784;2023-09-19T03:15:42;8.70;;;1.40;;
80625;SDS011;69982;51.758;5.784;2023-09-19T03:18:14;11.90;;;1.90;;
80625;SDS011;69982;51.758;5.784;2023-09-19T03:20:42;10.60;;;1.30;;
80625;SDS011;69982;51.758;5.784;2023-09-19T03:23:10;6.20;;;1.40;;
80625;SDS011;69982;51.758;5.784;2023-09-19T03:25:38;9.40;;;1.40;;
80625;SDS011;69982;51.758;5.784;2023-09-19T03:28:06;7.40;;;1.10;;
80625;SDS011;69982;51.758;5.784;2023-09-19T03:30:34;11.90;;;1.90;;
80625;SDS011;69982;51.758;5.784;2023-09-19T03:33:02;10.60;;;2.20;;
80625;SDS011;69982;51.758;5.784;2023-09-19T03:35:32;7.70;;;1.50;;
80625;SDS011;69982;51.758;5.784;2023-09-19T03:37:59;12.20;;;1.50;;
80625;SDS011;69982;51.758;5.784;2023-09-19T03:40:27;11.90;;;1.40;;
80625;SDS011;69982;51.758;5.784;2023-09-19T03:42:55;9.40;;;1.20;;
80625;SDS011;69982;51.758;5.784;2023-09-19T03:45:22;8.00;;;1.60;;
80625;SDS011;69982;51.758;5.784;2023-09-19T03:47:50;10.10;;;1.60;;
80625;SDS011;69982;51.758;5.784;2023-09-19T03:50:18;8.30;;;1.30;;
80625;SDS011;69982;51.758;5.784;2023-09-19T03:52:46;9.20;;;1.00;;
80625;SDS011;69982;51.758;5.784;2023-09-19T03:55:13;8.80;;;1.30;;
80625;SDS011;69982;51.758;5.784;2023-09-19T03:57:41;9.00;;;1.10;;
80625;SDS011;69982;51.758;5.784;2023-09-19T04:00:09;9.40;;;1.30;;
80625;SDS011;69982;51.758;5.784;2023-09-19T04:02:39;9.30;;;1.10;;
80625;SDS011;69982;51.758;5.784;2023-09-19T04:05:07;5.40;;;0.90;;
80625;SDS011;69982;51.758;5.784;2023-09-19T04:07:35;11.20;;;1.70;;
80625;SDS011;69982;51.758;5.784;2023-09-19T04:10:02;8.00;;;1.90;;
80625;SDS011;69982;51.758;5.784;2023-09-19T04:12:30;11.20;;;1.20;;
80625;SDS011;69982;51.758;5.784;2023-09-19T04:14:59;9.10;;;1.10;;
80625;SDS011;69982;51.758;5.784;2023-09-19T04:19:55;7.30;;;1.00;;
80625;SDS011;69982;51.758;5.784;2023-09-19T04:22:23;7.30;;;1.00;;
80625;SDS011;69982;51.758;5.784;2023-09-19T04:24:51;7.90;;;0.90;;
80625;SDS011;69982;51.758;5.784;2023-09-19T04:27:18;5.20;;;1.10;;
80625;SDS011;69982;51.758;5.784;2023-09-19T04:29:46;8.50;;;2.10;;
80625;SDS011;69982;51.758;5.784;2023-09-19T04:32:14;10.80;;;1.10;;
80625;SDS011;69982;51.758;5.784;2023-09-19T04:34:44;6.50;;;1.20;;
80625;SDS011;69982;51.758;5.784;2023-09-19T04:37:12;12.40;;;1.30;;
80625;SDS011;69982;51.758;5.784;2023-09-19T04:39:42;11.80;;;1.40;;
80625;SDS011;69982;51.758;5.784;2023-09-19T04:42:10;7.90;;;1.00;;
80625;SDS011;69982;51.758;5.784;2023-09-19T04:44:41;8.20;;;1.30;;
80625;SDS011;69982;51.758;5.784;2023-09-19T04:47:10;9.70;;;1.50;;
80625;SDS011;69982;51.758;5.784;2023-09-19T04:49:39;7.90;;;1.20;;
80625;SDS011;69982;51.758;5.784;2023-09-19T04:52:07;7.70;;;1.50;;
80625;SDS011;69982;51.758;5.784;2023-09-19T04:57:03;9.20;;;1.10;;
80625;SDS011;69982;51.758;5.784;2023-09-19T04:59:33;9.00;;;1.70;;
80625;SDS011;69982;51.758;5.784;2023-09-19T05:02:01;7.60;;;1.00;;
80625;SDS011;69982;51.758;5.784;2023-09-19T05:04:29;9.00;;;1.30;;
80625;SDS011;69982;51.758;5.784;2023-09-19T05:06:57;8.60;;;1.60;;
80625;SDS011;69982;51.758;5.784;2023-09-19T05:09:24;7.90;;;1.10;;
80625;SDS011;69982;51.758;5.784;2023-09-19T05:11:52;8.50;;;1.00;;
80625;SDS011;69982;51.758;5.784;2023-09-19T05:14:20;7.60;;;1.30;;
80625;SDS011;69982;51.758;5.784;2023-09-19T05:16:48;11.30;;;1.70;;
80625;SDS011;69982;51.758;5.784;2023-09-19T05:19:16;14.10;;;1.20;;
80625;SDS011;69982;51.758;5.784;2023-09-19T05:21:44;8.20;;;1.20;;
80625;SDS011;69982;51.758;5.784;2023-09-19T05:24:12;9.20;;;1.30;;
80625;SDS011;69982;51.758;5.784;2023-09-19T05:26:41;9.40;;;1.00;;
80625;SDS011;69982;51.758;5.784;2023-09-19T05:29:09;10.50;;;1.50;;
80625;SDS011;69982;51.758;5.784;2023-09-19T05:31:37;12.30;;;1.30;;
80625;SDS011;69982;51.758;5.784;2023-09-19T05:34:08;9.60;;;1.60;;
80625;SDS011;69982;51.758;5.784;2023-09-19T05:36:37;14.70;;;2.10;;
80625;SDS011;69982;51.758;5.784;2023-09-19T05:39:06;12.40;;;1.50;;
80625;SDS011;69982;51.758;5.784;2023-09-19T05:41:37;14.50;;;1.50;;
80625;SDS011;69982;51.758;5.784;2023-09-19T05:44:07;7.10;;;1.50;;
80625;SDS011;69982;51.758;5.784;2023-09-19T05:46:35;12.80;;;1.80;;
80625;SDS011;69982;51.758;5.784;2023-09-19T05:49:03;7.60;;;1.00;;
80625;SDS011;69982;51.758;5.784;2023-09-19T05:51:31;9.30;;;1.70;;
80625;SDS011;69982;51.758;5.784;2023-09-19T05:53:59;9.10;;;1.40;;
80625;SDS011;69982;51.758;5.784;2023-09-19T05:56:26;10.40;;;1.60;;
80625;SDS011;69982;51.758;5.784;2023-09-19T05:58:54;10.00;;;1.70;;
80625;SDS011;69982;51.758;5.784;2023-09-19T06:01:22;9.10;;;1.40;;
80625;SDS011;69982;51.758;5.784;2023-09-19T06:03:50;10.80;;;1.40;;
80625;SDS011;69982;51.758;5.784;2023-09-19T06:06:18;8.50;;;1.20;;
80625;SDS011;69982;51.758;5.784;2023-09-19T06:08:46;10.10;;;1.50;;
80625;SDS011;69982;51.758;5.784;2023-09-19T06:11:14;9.50;;;1.70;;
80625;SDS011;69982;51.758;5.784;2023-09-19T06:13:42;5.40;;;1.00;;
80625;SDS011;69982;51.758;5.784;2023-09-19T06:16:09;11.30;;;1.20;;
80625;SDS011;69982;51.758;5.784;2023-09-19T06:18:37;8.10;;;1.10;;
80625;SDS011;69982;51.758;5.784;2023-09-19T06:23:35;10.60;;;1.00;;
80625;SDS011;69982;51.758;5.784;2023-09-19T06:26:02;11.50;;;1.20;;
80625;SDS011;69982;51.758;5.784;2023-09-19T06:28:34;15.80;;;1.80;;
80625;SDS011;69982;51.758;5.784;2023-09-19T06:31:02;7.90;;;1.10;;
80625;SDS011;69982;51.758;5.784;2023-09-19T06:33:30;8.50;;;1.20;;
80625;SDS011;69982;51.758;5.784;2023-09-19T06:35:58;14.70;;;1.70;;
80625;SDS011;69982;51.758;5.784;2023-09-19T06:38:27;6.30;;;1.10;;
80625;SDS011;69982;51.758;5.784;2023-09-19T06:40:55;12.50;;;1.60;;
80625;SDS011;69982;51.758;5.784;2023-09-19T06:43:24;8.10;;;1.40;;
80625;SDS011;69982;51.758;5.784;2023-09-19T06:45:53;6.90;;;1.20;;
80625;SDS011;69982;51.758;5.784;2023-09-19T06:48:22;11.00;;;1.70;;
80625;SDS011;69982;51.758;5.784;2023-09-19T06:50:53;14.70;;;1.50;;
80625;SDS011;69982;51.758;5.784;2023-09-19T06:53:22;7.30;;;1.30;;
80625;SDS011;69982;51.758;5.784;2023-09-19T06:55:51;16.50;;;2.30;;
80625;SDS011;69982;51.758;5.784;2023-09-19T07:00:47;9.40;;;1.30;;
80625;SDS011;69982;51.758;5.784;2023-09-19T07:03:17;9.50;;;1.70;;
80625;SDS011;69982;51.758;5.784;2023-09-19T07:05:46;9.80;;;2.00;;
80625;SDS011;69982;51.758;5.784;2023-09-19T07:08:15;8.60;;;1.50;;
80625;SDS011;69982;51.758;5.784;2023-09-19T07:10:43;8.10;;;1.70;;
80625;SDS011;69982;51.758;5.784;2023-09-19T07:13:16;10.90;;;1.40;;
80625;SDS011;69982;51.758;5.784;2023-09-19T07:15:44;12.40;;;1.30;;
80625;SDS011;69982;51.758;5.784;2023-09-19T07:18:17;12.70;;;1.60;;
80625;SDS011;69982;51.758;5.784;2023-09-19T07:20:45;11.00;;;1.40;;
80625;SDS011;69982;51.758;5.784;2023-09-19T07:23:17;8.40;;;1.40;;
80625;SDS011;69982;51.758;5.784;2023-09-19T07:25:46;9.10;;;2.00;;
80625;SDS011;69982;51.758;5.784;2023-09-19T07:28:13;12.10;;;1.30;;
80625;SDS011;69982;51.758;5.784;2023-09-19T07:33:09;13.10;;;1.70;;
80625;SDS011;69982;51.758;5.784;2023-09-19T07:35:40;9.40;;;2.30;;
80625;SDS011;69982;51.758;5.784;2023-09-19T07:38:08;9.50;;;1.30;;
80625;SDS011;69982;51.758;5.784;2023-09-19T07:40:38;10.00;;;1.00;;
80625;SDS011;69982;51.758;5.784;2023-09-19T07:45:33;9.90;;;1.40;;
80625;SDS011;69982;51.758;5.784;2023-09-19T07:48:01;11.50;;;1.50;;
80625;SDS011;69982;51.758;5.784;2023-09-19T07:50:33;8.60;;;1.20;;
80625;SDS011;69982;51.758;5.784;2023-09-19T07:53:04;9.30;;;1.20;;
80625;SDS011;69982;51.758;5.784;2023-09-19T07:55:32;10.00;;;1.60;;
80625;SDS011;69982;51.758;5.784;2023-09-19T07:58:01;8.00;;;1.10;;
80625;SDS011;69982;51.758;5.784;2023-09-19T08:00:31;6.90;;;1.10;;
80625;SDS011;69982;51.758;5.784;2023-09-19T08:03:02;9.90;;;1.50;;
80625;SDS011;69982;51.758;5.784;2023-09-19T08:05:39;9.30;;;1.60;;
80625;SDS011;69982;51.758;5.784;2023-09-19T08:08:08;10.30;;;1.50;;
80625;SDS011;69982;51.758;5.784;2023-09-19T08:10:36;8.00;;;1.40;;
80625;SDS011;69982;51.758;5.784;2023-09-19T08:13:07;6.80;;;1.10;;
80625;SDS011;69982;51.758;5.784;2023-09-19T08:15:42;7.50;;;1.60;;
80625;SDS011;69982;51.758;5.784;2023-09-19T08:18:11;8.90;;;1.50;;
80625;SDS011;69982;51.758;5.784;2023-09-19T08:23:09;13.20;;;1.60;;
80625;SDS011;69982;51.758;5.784;2023-09-19T08:25:37;11.00;;;1.50;;
80625;SDS011;69982;51.758;5.784;2023-09-19T08:28:06;8.70;;;1.80;;
80625;SDS011;69982;51.758;5.784;2023-09-19T08:30:35;9.90;;;1.30;;
80625;SDS011;69982;51.758;5.784;2023-09-19T08:33:04;8.90;;;1.70;;
80625;SDS011;69982;51.758;5.784;2023-09-19T08:35:32;12.60;;;1.50;;
80625;SDS011;69982;51.758;5.784;2023-09-19T08:37:59;8.80;;;1.70;;
80625;SDS011;69982;51.758;5.784;2023-09-19T08:40:32;15.10;;;1.70;;
80625;SDS011;69982;51.758;5.784;2023-09-19T08:43:01;9.60;;;1.40;;
80625;SDS011;69982;51.758;5.784;2023-09-19T08:45:28;7.20;;;1.30;;
80625;SDS011;69982;51.758;5.784;2023-09-19T08:51:03;14.40;;;1.60;;
80625;SDS011;69982;51.758;5.784;2023-09-19T08:59:07;10.70;;;1.40;;
80625;SDS011;69982;51.758;5.784;2023-09-19T09:01:35;13.40;;;1.70;;
80625;SDS011;69982;51.758;5.784;2023-09-19T09:04:03;9.00;;;1.50;;
80625;SDS011;69982;51.758;5.784;2023-09-19T09:06:37;10.20;;;1.30;;
80625;SDS011;69982;51.758;5.784;2023-09-19T09:09:07;11.80;;;1.80;;
80625;SDS011;69982;51.758;5.784;2023-09-19T09:11:37;9.70;;;1.20;;
80625;SDS011;69982;51.758;5.784;2023-09-19T09:14:07;13.50;;;1.70;;
80625;SDS011;69982;51.758;5.784;2023-09-19T09:16:35;8.00;;;1.90;;
80625;SDS011;69982;51.758;5.784;2023-09-19T09:19:03;9.60;;;1.40;;
80625;SDS011;69982;51.758;5.784;2023-09-19T09:21:32;7.90;;;1.20;;
80625;SDS011;69982;51.758;5.784;2023-09-19T09:26:56;8.70;;;1.40;;
80625;SDS011;69982;51.758;5.784;2023-09-19T09:34:53;9.30;;;1.80;;
80625;SDS011;69982;51.758;5.784;2023-09-19T09:37:23;14.50;;;1.30;;
80625;SDS011;69982;51.758;5.784;2023-09-19T09:39:58;10.70;;;1.50;;
80625;SDS011;69982;51.758;5.784;2023-09-19T09:42:46;13.00;;;1.50;;
80625;SDS011;69982;51.758;5.784;2023-09-19T09:45:20;9.30;;;1.50;;
80625;SDS011;69982;51.758;5.784;2023-09-19T09:48:01;13.00;;;1.70;;
80625;SDS011;69982;51.758;5.784;2023-09-19T09:50:47;8.90;;;1.10;;
80625;SDS011;69982;51.758;5.784;2023-09-19T09:53:34;11.80;;;1.70;;
80625;SDS011;69982;51.758;5.784;2023-09-19T09:58:34;7.60;;;1.40;;
80625;SDS011;69982;51.758;5.784;2023-09-19T10:01:07;15.70;;;2.30;;
80625;SDS011;69982;51.758;5.784;2023-09-19T10:03:42;12.80;;;1.60;;
80625;SDS011;69982;51.758;5.784;2023-09-19T10:06:13;10.90;;;1.60;;
80625;SDS011;69982;51.758;5.784;2023-09-19T10:11:44;6.90;;;1.00;;
80625;SDS011;69982;51.758;5.784;2023-09-19T10:14:16;14.00;;;2.30;;
80625;SDS011;69982;51.758;5.784;2023-09-19T10:16:51;9.40;;;1.20;;
80625;SDS011;69982;51.758;5.784;2023-09-19T10:19:28;10.40;;;1.50;;
80625;SDS011;69982;51.758;5.784;2023-09-19T10:22:04;7.90;;;1.30;;
80625;SDS011;69982;51.758;5.784;2023-09-19T10:24:36;11.70;;;1.10;;
80625;SDS011;69982;51.758;5.784;2023-09-19T10:27:09;8.20;;;1.40;;
80625;SDS011;69982;51.758;5.784;2023-09-19T10:29:39;11.20;;;1.50;;
80625;SDS011;69982;51.758;5.784;2023-09-19T10:32:07;9.00;;;1.30;;
80625;SDS011;69982;51.758;5.784;2023-09-19T10:34:36;7.30;;;1.50;;
80625;SDS011;69982;51.758;5.784;2023-09-19T10:37:05;11.20;;;1.20;;
80625;SDS011;69982;51.758;5.784;2023-09-19T10:39:37;10.70;;;1.20;;
80625;SDS011;69982;51.758;5.784;2023-09-19T10:42:08;10.50;;;1.90;;
80625;SDS011;69982;51.758;5.784;2023-09-19T10:44:45;9.20;;;1.30;;
80625;SDS011;69982;51.758;5.784;2023-09-19T10:47:14;9.60;;;1.80;;
80625;SDS011;69982;51.758;5.784;2023-09-19T10:49:46;8.60;;;1.00;;
80625;SDS011;69982;51.758;5.784;2023-09-19T10:52:15;7.50;;;1.40;;
80625;SDS011;69982;51.758;5.784;2023-09-19T10:54:46;11.80;;;1.10;;
80625;SDS011;69982;51.758;5.784;2023-09-19T10:57:22;8.60;;;1.40;;
80625;SDS011;69982;51.758;5.784;2023-09-19T11:00:00;11.10;;;1.60;;
80625;SDS011;69982;51.758;5.784;2023-09-19T11:06:04;11.00;;;1.40;;
80625;SDS011;69982;51.758;5.784;2023-09-19T11:11:44;9.20;;;1.20;;
80625;SDS011;69982;51.758;5.784;2023-09-19T11:14:16;9.70;;;1.20;;
80625;SDS011;69982;51.758;5.784;2023-09-19T11:30:37;7.10;;;0.90;;
80625;SDS011;69982;51.758;5.784;2023-09-19T11:33:16;7.00;;;1.10;;
80625;SDS011;69982;51.758;5.784;2023-09-19T11:36:08;6.00;;;1.10;;
80625;SDS011;69982;51.758;5.784;2023-09-19T11:49:18;10.30;;;1.20;;
80625;SDS011;69982;51.758;5.784;2023-09-19T11:51:54;6.60;;;1.10;;
80625;SDS011;69982;51.758;5.784;2023-09-19T11:54:22;7.50;;;1.10;;
80625;SDS011;69982;51.758;5.784;2023-09-19T11:56:52;6.40;;;0.80;;
80625;SDS011;69982;51.758;5.784;2023-09-19T11:59:22;7.40;;;1.40;;
80625;SDS011;69982;51.758;5.784;2023-09-19T12:01:57;8.40;;;0.70;;
80625;SDS011;69982;51.758;5.784;2023-09-19T12:04:38;9.10;;;1.00;;
80625;SDS011;69982;51.758;5.784;2023-09-19T12:07:07;8.40;;;0.90;;
80625;SDS011;69982;51.758;5.784;2023-09-19T12:09:50;7.60;;;0.90;;
80625;SDS011;69982;51.758;5.784;2023-09-19T12:12:32;8.60;;;1.00;;
80625;SDS011;69982;51.758;5.784;2023-09-19T12:15:01;4.20;;;0.70;;
80625;SDS011;69982;51.758;5.784;2023-09-19T12:17:37;5.90;;;0.70;;
80625;SDS011;69982;51.758;5.784;2023-09-19T12:20:06;8.60;;;1.00;;
80625;SDS011;69982;51.758;5.784;2023-09-19T12:22:41;6.60;;;0.80;;
80625;SDS011;69982;51.758;5.784;2023-09-19T12:25:13;4.80;;;0.50;;
80625;SDS011;69982;51.758;5.784;2023-09-19T12:27:44;5.60;;;1.00;;
80625;SDS011;69982;51.758;5.784;2023-09-19T12:30:17;3.70;;;0.70;;
80625;SDS011;69982;51.758;5.784;2023-09-19T12:32:52;4.10;;;0.60;;
80625;SDS011;69982;51.758;5.784;2023-09-19T12:37:58;4.90;;;0.60;;
80625;SDS011;69982;51.758;5.784;2023-09-19T12:40:26;7.30;;;1.40;;
80625;SDS011;69982;51.758;5.784;2023-09-19T12:45:30;4.30;;;0.60;;
80625;SDS011;69982;51.758;5.784;2023-09-19T12:51:09;6.00;;;0.50;;
80625;SDS011;69982;51.758;5.784;2023-09-19T12:53:41;8.70;;;0.90;;
80625;SDS011;69982;51.758;5.784;2023-09-19T12:56:12;2.60;;;0.40;;
80625;SDS011;69982;51.758;5.784;2023-09-19T12:58:48;8.90;;;0.80;;
80625;SDS011;69982;51.758;5.784;2023-09-19T13:01:16;4.40;;;0.60;;
80625;SDS011;69982;51.758;5.784;2023-09-19T13:03:45;3.10;;;0.40;;
80625;SDS011;69982;51.758;5.784;2023-09-19T13:06:15;4.40;;;0.50;;
80625;SDS011;69982;51.758;5.784;2023-09-19T13:08:44;5.60;;;0.80;;
80625;SDS011;69982;51.758;5.784;2023-09-19T13:11:17;4.00;;;0.50;;
80625;SDS011;69982;51.758;5.784;2023-09-19T13:13:49;4.10;;;0.70;;
80625;SDS011;69982;51.758;5.784;2023-09-19T13:16:54;5.70;;;0.80;;
80625;SDS011;69982;51.758;5.784;2023-09-19T13:22:38;7.50;;;0.60;;
80625;SDS011;69982;51.758;5.784;2023-09-19T13:25:08;6.40;;;0.70;;
80625;SDS011;69982;51.758;5.784;2023-09-19T13:27:41;4.20;;;0.60;;
80625;SDS011;69982;51.758;5.784;2023-09-19T13:30:10;4.20;;;0.70;;
80625;SDS011;69982;51.758;5.784;2023-09-19T13:32:39;5.10;;;0.50;;
80625;SDS011;69982;51.758;5.784;2023-09-19T13:35:08;3.60;;;0.50;;
80625;SDS011;69982;51.758;5.784;2023-09-19T13:37:40;2.50;;;0.40;;
80625;SDS011;69982;51.758;5.784;2023-09-19T13:40:09;5.50;;;0.60;;
80625;SDS011;69982;51.758;5.784;2023-09-19T13:42:38;4.30;;;0.40;;
80625;SDS011;69982;51.758;5.784;2023-09-19T13:45:07;3.00;;;0.50;;
80625;SDS011;69982;51.758;5.784;2023-09-19T13:47:39;7.50;;;0.30;;
80625;SDS011;69982;51.758;5.784;2023-09-19T13:50:07;6.20;;;1.00;;
80625;SDS011;69982;51.758;5.784;2023-09-19T13:52:36;3.60;;;0.50;;
80625;SDS011;69982;51.758;5.784;2023-09-19T13:55:03;6.50;;;0.50;;
80625;SDS011;69982;51.758;5.784;2023-09-19T13:57:32;3.30;;;0.40;;
80625;SDS011;69982;51.758;5.784;2023-09-19T14:00:01;3.60;;;0.60;;
80625;SDS011;69982;51.758;5.784;2023-09-19T14:02:28;3.90;;;0.60;;
80625;SDS011;69982;51.758;5.784;2023-09-19T14:04:57;4.00;;;0.60;;
80625;SDS011;69982;51.758;5.784;2023-09-19T14:07:25;3.60;;;0.40;;
80625;SDS011;69982;51.758;5.784;2023-09-19T14:09:53;4.30;;;0.80;;
80625;SDS011;69982;51.758;5.784;2023-09-19T14:12:20;6.60;;;0.50;;
80625;SDS011;69982;51.758;5.784;2023-09-19T14:14:48;5.40;;;0.50;;
80625;SDS011;69982;51.758;5.784;2023-09-19T14:17:18;6.60;;;0.60;;
80625;SDS011;69982;51.758;5.784;2023-09-19T14:19:46;2.60;;;0.30;;
80625;SDS011;69982;51.758;5.784;2023-09-19T14:22:13;9.20;;;0.60;;
80625;SDS011;69982;51.758;5.784;2023-09-19T14:24:41;4.00;;;0.60;;
80625;SDS011;69982;51.758;5.784;2023-09-19T14:27:09;2.60;;;0.40;;
80625;SDS011;69982;51.758;5.784;2023-09-19T14:29:38;5.10;;;0.70;;
80625;SDS011;69982;51.758;5.784;2023-09-19T14:32:06;4.00;;;0.40;;
80625;SDS011;69982;51.758;5.784;2023-09-19T14:34:34;5.60;;;0.60;;
80625;SDS011;69982;51.758;5.784;2023-09-19T14:37:03;3.00;;;0.50;;
80625;SDS011;69982;51.758;5.784;2023-09-19T14:39:32;4.30;;;0.60;;
80625;SDS011;69982;51.758;5.784;2023-09-19T14:41:59;7.20;;;0.70;;
80625;SDS011;69982;51.758;5.784;2023-09-19T14:44:27;5.40;;;0.70;;
80625;SDS011;69982;51.758;5.784;2023-09-19T14:46:55;5.40;;;0.70;;
80625;SDS011;69982;51.758;5.784;2023-09-19T14:49:23;5.90;;;0.50;;
80625;SDS011;69982;51.758;5.784;2023-09-19T14:54:19;6.90;;;0.50;;
80625;SDS011;69982;51.758;5.784;2023-09-19T14:56:48;4.90;;;0.60;;
80625;SDS011;69982;51.758;5.784;2023-09-19T14:59:21;4.50;;;0.50;;
80625;SDS011;69982;51.758;5.784;2023-09-19T15:04:17;4.80;;;0.80;;
80625;SDS011;69982;51.758;5.784;2023-09-19T15:06:45;5.00;;;0.60;;
80625;SDS011;69982;51.758;5.784;2023-09-19T15:09:13;3.60;;;0.50;;
80625;SDS011;69982;51.758;5.784;2023-09-19T15:11:41;3.70;;;0.80;;
80625;SDS011;69982;51.758;5.784;2023-09-19T15:14:09;3.50;;;0.70;;
80625;SDS011;69982;51.758;5.784;2023-09-19T15:16:37;4.10;;;0.60;;
80625;SDS011;69982;51.758;5.784;2023-09-19T15:19:05;4.40;;;0.60;;
80625;SDS011;69982;51.758;5.784;2023-09-19T15:21:34;3.30;;;0.60;;
80625;SDS011;69982;51.758;5.784;2023-09-19T15:24:02;4.20;;;0.50;;
80625;SDS011;69982;51.758;5.784;2023-09-19T15:26:30;4.20;;;0.50;;
80625;SDS011;69982;51.758;5.784;2023-09-19T15:28:58;7.60;;;0.70;;
80625;SDS011;69982;51.758;5.784;2023-09-19T15:31:25;4.20;;;0.70;;
80625;SDS011;69982;51.758;5.784;2023-09-19T15:33:53;3.60;;;0.40;;
80625;SDS011;69982;51.758;5.784;2023-09-19T15:36:22;4.90;;;0.70;;
80625;SDS011;69982;51.758;5.784;2023-09-19T15:41:26;5.70;;;0.50;;
80625;SDS011;69982;51.758;5.784;2023-09-19T15:43:58;4.90;;;0.60;;
80625;SDS011;69982;51.758;5.784;2023-09-19T15:46:28;4.10;;;0.60;;
80625;SDS011;69982;51.758;5.784;2023-09-19T15:49:03;4.00;;;0.70;;
80625;SDS011;69982;51.758;5.784;2023-09-19T15:51:31;4.10;;;0.50;;
80625;SDS011;69982;51.758;5.784;2023-09-19T15:56:29;7.30;;;1.10;;
80625;SDS011;69982;51.758;5.784;2023-09-19T16:01:26;5.00;;;0.70;;
80625;SDS011;69982;51.758;5.784;2023-09-19T16:06:28;6.20;;;0.60;;
80625;SDS011;69982;51.758;5.784;2023-09-19T16:08:58;5.70;;;0.70;;
80625;SDS011;69982;51.758;5.784;2023-09-19T16:11:27;4.30;;;0.60;;
80625;SDS011;69982;51.758;5.784;2023-09-19T16:13:55;5.30;;;0.60;;
80625;SDS011;69982;51.758;5.784;2023-09-19T16:16:24;7.00;;;0.80;;
80625;SDS011;69982;51.758;5.784;2023-09-19T16:19:01;4.90;;;0.60;;
80625;SDS011;69982;51.758;5.784;2023-09-19T16:21:32;4.70;;;0.80;;
80625;SDS011;69982;51.758;5.784;2023-09-19T16:24:04;5.10;;;0.70;;
80625;SDS011;69982;51.758;5.784;2023-09-19T16:26:33;8.00;;;0.90;;
80625;SDS011;69982;51.758;5.784;2023-09-19T16:29:01;7.80;;;1.00;;
80625;SDS011;69982;51.758;5.784;2023-09-19T16:31:29;3.10;;;0.50;;
80625;SDS011;69982;51.758;5.784;2023-09-19T16:34:00;4.60;;;0.70;;
80625;SDS011;69982;51.758;5.784;2023-09-19T16:36:28;5.30;;;0.70;;
80625;SDS011;69982;51.758;5.784;2023-09-19T16:38:56;4.00;;;0.70;;
80625;SDS011;69982;51.758;5.784;2023-09-19T16:41:23;4.50;;;0.60;;
80625;SDS011;69982;51.758;5.784;2023-09-19T16:43:51;5.80;;;1.00;;
80625;SDS011;69982;51.758;5.784;2023-09-19T16:46:19;4.30;;;0.70;;
80625;SDS011;69982;51.758;5.784;2023-09-19T16:48:47;4.40;;;0.60;;
80625;SDS011;69982;51.758;5.784;2023-09-19T16:51:19;4.60;;;0.60;;
80625;SDS011;69982;51.758;5.784;2023-09-19T16:53:48;3.80;;;0.40;;